sensor_id;sensor_type;location;lat;lon;timestamp;P1;durP1;ratioP1;P2;durP2;ratioP2
9934;SDS011;5006;41.828;23.478;2023-05-07T00:00:54;6.03;;;3.40;;
9934;SDS011;5006;41.828;23.478;2023-05-07T00:02:01;4.85;;;3.55;;
9934;SDS011;5006;41.828;23.478;2023-05-07T00:03:08;3.58;;;3.00;;
9934;SDS011;5006;41.828;23.478;2023-05-07T00:04:15;4.13;;;3.40;;
9934;SDS011;5006;41.828;23.478;2023-05-07T00:05:22;3.75;;;3.40;;
9934;SDS011;5006;41.828;23.478;2023-05-07T00:06:28;4.45;;;3.50;;
9934;SDS011;5006;41.828;23.478;2023-05-07T00:07:33;7.00;;;3.70;;
9934;SDS011;5006;41.828;23.478;2023-05-07T00:08:39;3.85;;;3.40;;
9934;SDS011;5006;41.828;23.478;2023-05-07T00:09:44;3.75;;;3.40;;
9934;SDS011;5006;41.828;23.478;2023-05-07T00:10:50;4.50;;;3.30;;
9934;SDS011;5006;41.828;23.478;2023-05-07T00:11:55;3.55;;;3.25;;
9934;SDS011;5006;41.828;23.478;2023-05-07T00:13:01;7.18;;;3.38;;
9934;SDS011;5006;41.828;23.478;2023-05-07T00:14:06;3.72;;;3.38;;
9934;SDS011;5006;41.828;23.478;2023-05-07T00:15:12;4.65;;;3.28;;
9934;SDS011;5006;41.828;23.478;2023-05-07T00:16:17;5.13;;;3.10;;
9934;SDS011;5006;41.828;23.478;2023-05-07T00:17:24;3.80;;;3.50;;
9934;SDS011;5006;41.828;23.478;2023-05-07T00:18:29;4.57;;;3.35;;
9934;SDS011;5006;41.828;23.478;2023-05-07T00:19:35;4.20;;;3.40;;
9934;SDS011;5006;41.828;23.478;2023-05-07T00:20:41;5.45;;;3.22;;
9934;SDS011;5006;41.828;23.478;2023-05-07T00:21:47;3.50;;;3.20;;
9934;SDS011;5006;41.828;23.478;2023-05-07T00:22:52;3.70;;;3.00;;
9934;SDS011;5006;41.828;23.478;2023-05-07T00:23:58;3.55;;;3.25;;
9934;SDS011;5006;41.828;23.478;2023-05-07T00:25:03;3.47;;;2.97;;
9934;SDS011;5006;41.828;23.478;2023-05-07T00:26:10;6.22;;;3.40;;
9934;SDS011;5006;41.828;23.478;2023-05-07T00:27:16;5.13;;;3.58;;
9934;SDS011;5006;41.828;23.478;2023-05-07T00:28:22;4.10;;;3.70;;
9934;SDS011;5006;41.828;23.478;2023-05-07T00:29:27;3.67;;;3.28;;
9934;SDS011;5006;41.828;23.478;2023-05-07T00:30:33;6.03;;;3.88;;
9934;SDS011;5006;41.828;23.478;2023-05-07T00:31:38;6.00;;;4.03;;
9934;SDS011;5006;41.828;23.478;2023-05-07T00:32:44;4.65;;;4.18;;
9934;SDS011;5006;41.828;23.478;2023-05-07T00:33:50;4.93;;;3.83;;
9934;SDS011;5006;41.828;23.478;2023-05-07T00:34:56;6.47;;;4.70;;
9934;SDS011;5006;41.828;23.478;2023-05-07T00:36:03;5.97;;;4.82;;
9934;SDS011;5006;41.828;23.478;2023-05-07T00:37:09;5.75;;;5.22;;
9934;SDS011;5006;41.828;23.478;2023-05-07T00:38:14;5.90;;;5.30;;
9934;SDS011;5006;41.828;23.478;2023-05-07T00:39:21;5.93;;;5.32;;
9934;SDS011;5006;41.828;23.478;2023-05-07T00:40:26;5.22;;;4.30;;
9934;SDS011;5006;41.828;23.478;2023-05-07T00:41:32;5.82;;;4.60;;
9934;SDS011;5006;41.828;23.478;2023-05-07T00:42:37;5.70;;;4.57;;
9934;SDS011;5006;41.828;23.478;2023-05-07T00:43:43;6.05;;;4.50;;
9934;SDS011;5006;41.828;23.478;2023-05-07T00:44:49;5.30;;;4.32;;
9934;SDS011;5006;41.828;23.478;2023-05-07T00:45:55;5.25;;;4.70;;
9934;SDS011;5006;41.828;23.478;2023-05-07T00:47:02;5.38;;;4.18;;
9934;SDS011;5006;41.828;23.478;2023-05-07T00:48:11;7.85;;;4.72;;
9934;SDS011;5006;41.828;23.478;2023-05-07T00:49:17;5.47;;;4.22;;
9934;SDS011;5006;41.828;23.478;2023-05-07T00:50:24;4.97;;;4.40;;
9934;SDS011;5006;41.828;23.478;2023-05-07T00:51:32;7.07;;;4.93;;
9934;SDS011;5006;41.828;23.478;2023-05-07T00:52:39;7.30;;;4.93;;
9934;SDS011;5006;41.828;23.478;2023-05-07T00:53:46;5.88;;;5.28;;
9934;SDS011;5006;41.828;23.478;2023-05-07T00:54:52;4.88;;;4.32;;
9934;SDS011;5006;41.828;23.478;2023-05-07T00:55:58;5.55;;;4.50;;
9934;SDS011;5006;41.828;23.478;2023-05-07T00:57:05;4.72;;;4.10;;
9934;SDS011;5006;41.828;23.478;2023-05-07T00:58:11;4.68;;;4.28;;
9934;SDS011;5006;41.828;23.478;2023-05-07T00:59:17;4.78;;;4.30;;
9934;SDS011;5006;41.828;23.478;2023-05-07T01:00:23;4.43;;;4.03;;
9934;SDS011;5006;41.828;23.478;2023-05-07T01:01:29;4.38;;;3.78;;
9934;SDS011;5006;41.828;23.478;2023-05-07T01:02:34;5.63;;;3.70;;
9934;SDS011;5006;41.828;23.478;2023-05-07T01:03:40;4.40;;;3.85;;
9934;SDS011;5006;41.828;23.478;2023-05-07T01:04:45;4.47;;;3.70;;
9934;SDS011;5006;41.828;23.478;2023-05-07T01:05:51;5.22;;;3.88;;
9934;SDS011;5006;41.828;23.478;2023-05-07T01:06:59;4.75;;;3.85;;
9934;SDS011;5006;41.828;23.478;2023-05-07T01:08:07;4.28;;;3.88;;
9934;SDS011;5006;41.828;23.478;2023-05-07T01:09:13;4.05;;;3.65;;
9934;SDS011;5006;41.828;23.478;2023-05-07T01:10:20;6.57;;;3.70;;
9934;SDS011;5006;41.828;23.478;2023-05-07T01:11:26;4.05;;;3.65;;
9934;SDS011;5006;41.828;23.478;2023-05-07T01:12:32;4.95;;;3.80;;
9934;SDS011;5006;41.828;23.478;2023-05-07T01:13:38;4.85;;;3.70;;
9934;SDS011;5006;41.828;23.478;2023-05-07T01:14:45;5.68;;;3.83;;
9934;SDS011;5006;41.828;23.478;2023-05-07T01:15:50;4.28;;;3.88;;
9934;SDS011;5006;41.828;23.478;2023-05-07T01:16:56;4.22;;;3.83;;
9934;SDS011;5006;41.828;23.478;2023-05-07T01:18:03;5.32;;;3.70;;
9934;SDS011;5006;41.828;23.478;2023-05-07T01:19:13;4.20;;;3.80;;
9934;SDS011;5006;41.828;23.478;2023-05-07T01:20:21;5.10;;;3.83;;
9934;SDS011;5006;41.828;23.478;2023-05-07T01:21:31;4.43;;;4.00;;
9934;SDS011;5006;41.828;23.478;2023-05-07T01:22:39;4.38;;;3.97;;
9934;SDS011;5006;41.828;23.478;2023-05-07T01:23:47;4.18;;;3.67;;
9934;SDS011;5006;41.828;23.478;2023-05-07T01:24:52;4.72;;;3.85;;
9934;SDS011;5006;41.828;23.478;2023-05-07T01:26:00;4.57;;;3.78;;
9934;SDS011;5006;41.828;23.478;2023-05-07T01:27:07;4.82;;;3.97;;
9934;SDS011;5006;41.828;23.478;2023-05-07T01:28:15;4.03;;;3.60;;
9934;SDS011;5006;41.828;23.478;2023-05-07T01:29:21;5.13;;;3.97;;
9934;SDS011;5006;41.828;23.478;2023-05-07T01:30:27;5.28;;;4.10;;
9934;SDS011;5006;41.828;23.478;2023-05-07T01:31:34;4.80;;;4.13;;
9934;SDS011;5006;41.828;23.478;2023-05-07T01:32:42;5.47;;;4.13;;
9934;SDS011;5006;41.828;23.478;2023-05-07T01:33:52;4.68;;;4.28;;
9934;SDS011;5006;41.828;23.478;2023-05-07T01:34:59;5.55;;;3.90;;
9934;SDS011;5006;41.828;23.478;2023-05-07T01:36:05;4.30;;;3.90;;
9934;SDS011;5006;41.828;23.478;2023-05-07T01:37:13;4.90;;;3.80;;
9934;SDS011;5006;41.828;23.478;2023-05-07T01:38:20;5.60;;;4.00;;
9934;SDS011;5006;41.828;23.478;2023-05-07T01:39:28;4.47;;;4.05;;
9934;SDS011;5006;41.828;23.478;2023-05-07T01:40:34;4.80;;;4.40;;
9934;SDS011;5006;41.828;23.478;2023-05-07T01:41:40;5.35;;;4.05;;
9934;SDS011;5006;41.828;23.478;2023-05-07T01:42:46;5.03;;;3.90;;
9934;SDS011;5006;41.828;23.478;2023-05-07T01:43:54;4.20;;;3.80;;
9934;SDS011;5006;41.828;23.478;2023-05-07T01:45:00;8.15;;;4.35;;
9934;SDS011;5006;41.828;23.478;2023-05-07T01:46:06;4.93;;;4.30;;
9934;SDS011;5006;41.828;23.478;2023-05-07T01:47:14;4.00;;;3.60;;
9934;SDS011;5006;41.828;23.478;2023-05-07T01:48:22;4.65;;;4.00;;
9934;SDS011;5006;41.828;23.478;2023-05-07T01:49:28;5.35;;;4.68;;
9934;SDS011;5006;41.828;23.478;2023-05-07T01:50:35;5.80;;;4.55;;
9934;SDS011;5006;41.828;23.478;2023-05-07T01:51:41;4.95;;;4.28;;
9934;SDS011;5006;41.828;23.478;2023-05-07T01:52:49;5.22;;;4.72;;
9934;SDS011;5006;41.828;23.478;2023-05-07T01:53:56;7.47;;;6.68;;
9934;SDS011;5006;41.828;23.478;2023-05-07T01:55:04;10.77;;;9.63;;
9934;SDS011;5006;41.828;23.478;2023-05-07T01:56:10;11.27;;;9.52;;
9934;SDS011;5006;41.828;23.478;2023-05-07T01:57:18;9.05;;;7.38;;
9934;SDS011;5006;41.828;23.478;2023-05-07T01:58:23;6.55;;;5.57;;
9934;SDS011;5006;41.828;23.478;2023-05-07T01:59:29;5.60;;;4.57;;
9934;SDS011;5006;41.828;23.478;2023-05-07T02:00:34;5.78;;;5.18;;
9934;SDS011;5006;41.828;23.478;2023-05-07T02:01:40;5.68;;;5.13;;
9934;SDS011;5006;41.828;23.478;2023-05-07T02:02:45;5.70;;;4.93;;
9934;SDS011;5006;41.828;23.478;2023-05-07T02:04:06;6.50;;;5.43;;
9934;SDS011;5006;41.828;23.478;2023-05-07T02:05:11;8.98;;;5.88;;
9934;SDS011;5006;41.828;23.478;2023-05-07T02:06:18;8.45;;;6.43;;
9934;SDS011;5006;41.828;23.478;2023-05-07T02:07:23;7.20;;;6.45;;
9934;SDS011;5006;41.828;23.478;2023-05-07T02:08:29;8.00;;;6.50;;
9934;SDS011;5006;41.828;23.478;2023-05-07T02:09:36;6.60;;;6.00;;
9934;SDS011;5006;41.828;23.478;2023-05-07T02:10:43;6.30;;;5.53;;
9934;SDS011;5006;41.828;23.478;2023-05-07T02:11:49;7.35;;;5.90;;
9934;SDS011;5006;41.828;23.478;2023-05-07T02:12:57;6.15;;;5.53;;
9934;SDS011;5006;41.828;23.478;2023-05-07T02:14:04;6.63;;;5.05;;
9934;SDS011;5006;41.828;23.478;2023-05-07T02:15:10;6.32;;;5.70;;
9934;SDS011;5006;41.828;23.478;2023-05-07T02:16:15;5.97;;;5.38;;
9934;SDS011;5006;41.828;23.478;2023-05-07T02:17:21;7.03;;;5.60;;
9934;SDS011;5006;41.828;23.478;2023-05-07T02:18:27;6.47;;;5.25;;
9934;SDS011;5006;41.828;23.478;2023-05-07T02:19:33;5.70;;;5.20;;
9934;SDS011;5006;41.828;23.478;2023-05-07T02:20:38;6.90;;;5.55;;
9934;SDS011;5006;41.828;23.478;2023-05-07T02:21:44;5.97;;;4.97;;
9934;SDS011;5006;41.828;23.478;2023-05-07T02:22:49;5.93;;;5.32;;
9934;SDS011;5006;41.828;23.478;2023-05-07T02:23:55;7.13;;;5.97;;
9934;SDS011;5006;41.828;23.478;2023-05-07T02:25:01;7.28;;;5.65;;
9934;SDS011;5006;41.828;23.478;2023-05-07T02:26:07;5.97;;;5.30;;
9934;SDS011;5006;41.828;23.478;2023-05-07T02:27:12;6.78;;;6.00;;
9934;SDS011;5006;41.828;23.478;2023-05-07T02:28:18;6.03;;;5.43;;
9934;SDS011;5006;41.828;23.478;2023-05-07T02:29:39;8.10;;;5.45;;
9934;SDS011;5006;41.828;23.478;2023-05-07T02:30:45;7.07;;;5.50;;
9934;SDS011;5006;41.828;23.478;2023-05-07T02:31:50;7.53;;;5.90;;
9934;SDS011;5006;41.828;23.478;2023-05-07T02:32:57;6.47;;;5.78;;
9934;SDS011;5006;41.828;23.478;2023-05-07T02:34:02;6.30;;;5.70;;
9934;SDS011;5006;41.828;23.478;2023-05-07T02:35:09;6.25;;;5.65;;
9934;SDS011;5006;41.828;23.478;2023-05-07T02:36:15;5.50;;;5.00;;
9934;SDS011;5006;41.828;23.478;2023-05-07T02:37:30;7.57;;;5.50;;
9934;SDS011;5006;41.828;23.478;2023-05-07T02:38:35;6.05;;;5.28;;
9934;SDS011;5006;41.828;23.478;2023-05-07T02:39:42;7.57;;;5.65;;
9934;SDS011;5006;41.828;23.478;2023-05-07T02:40:48;6.45;;;5.13;;
9934;SDS011;5006;41.828;23.478;2023-05-07T02:41:54;6.70;;;4.97;;
9934;SDS011;5006;41.828;23.478;2023-05-07T02:42:59;4.85;;;4.45;;
9934;SDS011;5006;41.828;23.478;2023-05-07T02:44:05;5.60;;;5.10;;
9934;SDS011;5006;41.828;23.478;2023-05-07T02:45:11;5.43;;;4.82;;
9934;SDS011;5006;41.828;23.478;2023-05-07T02:46:17;4.80;;;4.38;;
9934;SDS011;5006;41.828;23.478;2023-05-07T02:47:28;8.02;;;4.95;;
9934;SDS011;5006;41.828;23.478;2023-05-07T02:48:33;6.13;;;4.85;;
9934;SDS011;5006;41.828;23.478;2023-05-07T02:49:40;5.32;;;4.80;;
9934;SDS011;5006;41.828;23.478;2023-05-07T02:50:46;8.15;;;5.30;;
9934;SDS011;5006;41.828;23.478;2023-05-07T02:51:53;5.45;;;4.93;;
9934;SDS011;5006;41.828;23.478;2023-05-07T02:53:01;7.13;;;4.93;;
9934;SDS011;5006;41.828;23.478;2023-05-07T02:54:08;7.13;;;5.20;;
9934;SDS011;5006;41.828;23.478;2023-05-07T02:55:13;5.80;;;4.88;;
9934;SDS011;5006;41.828;23.478;2023-05-07T02:56:20;6.75;;;5.20;;
9934;SDS011;5006;41.828;23.478;2023-05-07T02:57:26;5.72;;;5.13;;
9934;SDS011;5006;41.828;23.478;2023-05-07T02:58:33;5.63;;;5.13;;
9934;SDS011;5006;41.828;23.478;2023-05-07T02:59:41;5.78;;;5.18;;
9934;SDS011;5006;41.828;23.478;2023-05-07T03:00:47;5.55;;;5.05;;
9934;SDS011;5006;41.828;23.478;2023-05-07T03:02:01;7.07;;;5.38;;
9934;SDS011;5006;41.828;23.478;2023-05-07T03:03:07;6.78;;;5.07;;
9934;SDS011;5006;41.828;23.478;2023-05-07T03:04:12;6.80;;;5.38;;
9934;SDS011;5006;41.828;23.478;2023-05-07T03:05:18;5.55;;;5.00;;
9934;SDS011;5006;41.828;23.478;2023-05-07T03:06:24;5.55;;;4.70;;
9934;SDS011;5006;41.828;23.478;2023-05-07T03:07:30;8.18;;;4.72;;
9934;SDS011;5006;41.828;23.478;2023-05-07T03:08:35;5.78;;;5.22;;
9934;SDS011;5006;41.828;23.478;2023-05-07T03:09:42;5.78;;;4.93;;
9934;SDS011;5006;41.828;23.478;2023-05-07T03:10:47;5.63;;;5.07;;
9934;SDS011;5006;41.828;23.478;2023-05-07T03:11:54;6.35;;;4.82;;
9934;SDS011;5006;41.828;23.478;2023-05-07T03:13:00;6.88;;;4.85;;
9934;SDS011;5006;41.828;23.478;2023-05-07T03:14:07;5.57;;;4.95;;
9934;SDS011;5006;41.828;23.478;2023-05-07T03:15:13;7.20;;;5.20;;
9934;SDS011;5006;41.828;23.478;2023-05-07T03:16:18;5.63;;;4.78;;
9934;SDS011;5006;41.828;23.478;2023-05-07T03:17:24;5.30;;;4.80;;
9934;SDS011;5006;41.828;23.478;2023-05-07T03:18:29;5.20;;;4.70;;
9934;SDS011;5006;41.828;23.478;2023-05-07T03:19:35;5.20;;;4.40;;
9934;SDS011;5006;41.828;23.478;2023-05-07T03:20:40;5.18;;;4.57;;
9934;SDS011;5006;41.828;23.478;2023-05-07T03:21:46;5.05;;;4.55;;
9934;SDS011;5006;41.828;23.478;2023-05-07T03:22:51;7.03;;;4.88;;
9934;SDS011;5006;41.828;23.478;2023-05-07T03:23:57;5.30;;;4.30;;
9934;SDS011;5006;41.828;23.478;2023-05-07T03:25:02;5.57;;;4.18;;
9934;SDS011;5006;41.828;23.478;2023-05-07T03:26:10;5.32;;;4.50;;
9934;SDS011;5006;41.828;23.478;2023-05-07T03:27:17;4.65;;;4.25;;
9934;SDS011;5006;41.828;23.478;2023-05-07T03:28:23;5.38;;;4.20;;
9934;SDS011;5006;41.828;23.478;2023-05-07T03:29:34;4.65;;;4.22;;
9934;SDS011;5006;41.828;23.478;2023-05-07T03:30:39;4.60;;;4.10;;
9934;SDS011;5006;41.828;23.478;2023-05-07T03:31:45;6.15;;;4.15;;
9934;SDS011;5006;41.828;23.478;2023-05-07T03:32:50;5.45;;;4.15;;
9934;SDS011;5006;41.828;23.478;2023-05-07T03:33:56;4.50;;;4.10;;
9934;SDS011;5006;41.828;23.478;2023-05-07T03:35:02;4.45;;;4.05;;
9934;SDS011;5006;41.828;23.478;2023-05-07T03:36:09;6.55;;;4.20;;
9934;SDS011;5006;41.828;23.478;2023-05-07T03:37:15;4.50;;;4.10;;
9934;SDS011;5006;41.828;23.478;2023-05-07T03:38:21;6.07;;;4.38;;
9934;SDS011;5006;41.828;23.478;2023-05-07T03:39:28;4.60;;;4.15;;
9934;SDS011;5006;41.828;23.478;2023-05-07T03:40:33;4.30;;;3.90;;
9934;SDS011;5006;41.828;23.478;2023-05-07T03:41:40;6.03;;;4.63;;
9934;SDS011;5006;41.828;23.478;2023-05-07T03:42:47;4.88;;;4.38;;
9934;SDS011;5006;41.828;23.478;2023-05-07T03:43:54;4.80;;;4.28;;
9934;SDS011;5006;41.828;23.478;2023-05-07T03:44:59;4.70;;;3.90;;
9934;SDS011;5006;41.828;23.478;2023-05-07T03:46:05;8.25;;;4.38;;
9934;SDS011;5006;41.828;23.478;2023-05-07T03:47:11;5.40;;;4.38;;
9934;SDS011;5006;41.828;23.478;2023-05-07T03:48:17;4.50;;;4.10;;
9934;SDS011;5006;41.828;23.478;2023-05-07T03:49:23;5.03;;;4.03;;
9934;SDS011;5006;41.828;23.478;2023-05-07T03:50:29;5.75;;;4.30;;
9934;SDS011;5006;41.828;23.478;2023-05-07T03:51:34;4.85;;;4.13;;
9934;SDS011;5006;41.828;23.478;2023-05-07T03:52:43;6.25;;;4.78;;
9934;SDS011;5006;41.828;23.478;2023-05-07T03:53:49;5.68;;;4.78;;
9934;SDS011;5006;41.828;23.478;2023-05-07T03:54:57;4.88;;;4.35;;
9934;SDS011;5006;41.828;23.478;2023-05-07T03:56:02;5.50;;;4.10;;
9934;SDS011;5006;41.828;23.478;2023-05-07T03:57:13;8.80;;;4.40;;
9934;SDS011;5006;41.828;23.478;2023-05-07T03:58:20;6.97;;;4.53;;
9934;SDS011;5006;41.828;23.478;2023-05-07T03:59:26;12.20;;;4.60;;
9934;SDS011;5006;41.828;23.478;2023-05-07T04:00:31;5.97;;;4.15;;
9934;SDS011;5006;41.828;23.478;2023-05-07T04:01:38;6.72;;;4.22;;
9934;SDS011;5006;41.828;23.478;2023-05-07T04:02:44;7.32;;;4.60;;
9934;SDS011;5006;41.828;23.478;2023-05-07T04:03:50;5.47;;;3.95;;
9934;SDS011;5006;41.828;23.478;2023-05-07T04:04:55;5.15;;;4.50;;
9934;SDS011;5006;41.828;23.478;2023-05-07T04:06:02;5.47;;;4.70;;
9934;SDS011;5006;41.828;23.478;2023-05-07T04:07:09;6.43;;;5.75;;
9934;SDS011;5006;41.828;23.478;2023-05-07T04:08:19;4.70;;;4.30;;
9934;SDS011;5006;41.828;23.478;2023-05-07T04:09:27;6.63;;;5.20;;
9934;SDS011;5006;41.828;23.478;2023-05-07T04:10:35;5.68;;;5.18;;
9934;SDS011;5006;41.828;23.478;2023-05-07T04:11:44;6.70;;;5.57;;
9934;SDS011;5006;41.828;23.478;2023-05-07T04:12:50;5.40;;;4.90;;
9934;SDS011;5006;41.828;23.478;2023-05-07T04:14:00;5.10;;;4.65;;
9934;SDS011;5006;41.828;23.478;2023-05-07T04:15:06;9.50;;;6.60;;
9934;SDS011;5006;41.828;23.478;2023-05-07T04:16:12;12.80;;;10.48;;
9934;SDS011;5006;41.828;23.478;2023-05-07T04:17:19;13.05;;;10.02;;
9934;SDS011;5006;41.828;23.478;2023-05-07T04:18:24;10.55;;;9.55;;
9934;SDS011;5006;41.828;23.478;2023-05-07T04:19:30;11.70;;;8.63;;
9934;SDS011;5006;41.828;23.478;2023-05-07T04:20:37;11.05;;;9.95;;
9934;SDS011;5006;41.828;23.478;2023-05-07T04:21:47;11.35;;;10.10;;
9934;SDS011;5006;41.828;23.478;2023-05-07T04:22:53;11.10;;;10.05;;
9934;SDS011;5006;41.828;23.478;2023-05-07T04:23:58;10.48;;;9.40;;
9934;SDS011;5006;41.828;23.478;2023-05-07T04:25:05;9.95;;;8.68;;
9934;SDS011;5006;41.828;23.478;2023-05-07T04:26:14;11.05;;;8.32;;
9934;SDS011;5006;41.828;23.478;2023-05-07T04:27:22;7.85;;;7.00;;
9934;SDS011;5006;41.828;23.478;2023-05-07T04:28:29;7.50;;;6.32;;
9934;SDS011;5006;41.828;23.478;2023-05-07T04:29:35;8.05;;;6.45;;
9934;SDS011;5006;41.828;23.478;2023-05-07T04:30:41;9.80;;;6.50;;
9934;SDS011;5006;41.828;23.478;2023-05-07T04:31:46;10.15;;;6.82;;
9934;SDS011;5006;41.828;23.478;2023-05-07T04:32:52;11.90;;;7.80;;
9934;SDS011;5006;41.828;23.478;2023-05-07T04:33:57;12.48;;;9.45;;
9934;SDS011;5006;41.828;23.478;2023-05-07T04:35:03;13.48;;;11.98;;
9934;SDS011;5006;41.828;23.478;2023-05-07T04:36:09;14.57;;;13.13;;
9934;SDS011;5006;41.828;23.478;2023-05-07T04:37:22;19.83;;;17.27;;
9934;SDS011;5006;41.828;23.478;2023-05-07T04:38:27;20.45;;;17.40;;
9934;SDS011;5006;41.828;23.478;2023-05-07T04:39:33;21.70;;;19.40;;
9934;SDS011;5006;41.828;23.478;2023-05-07T04:40:40;21.60;;;19.38;;
9934;SDS011;5006;41.828;23.478;2023-05-07T04:41:48;23.65;;;20.05;;
9934;SDS011;5006;41.828;23.478;2023-05-07T04:42:54;23.25;;;20.40;;
9934;SDS011;5006;41.828;23.478;2023-05-07T04:44:00;24.05;;;21.10;;
9934;SDS011;5006;41.828;23.478;2023-05-07T04:45:12;21.17;;;18.98;;
9934;SDS011;5006;41.828;23.478;2023-05-07T04:46:19;22.27;;;19.95;;
9934;SDS011;5006;41.828;23.478;2023-05-07T04:47:28;23.60;;;20.92;;
9934;SDS011;5006;41.828;23.478;2023-05-07T04:48:33;24.73;;;22.23;;
9934;SDS011;5006;41.828;23.478;2023-05-07T04:49:40;25.13;;;22.08;;
9934;SDS011;5006;41.828;23.478;2023-05-07T04:50:47;26.58;;;22.30;;
9934;SDS011;5006;41.828;23.478;2023-05-07T04:51:54;24.90;;;22.40;;
9934;SDS011;5006;41.828;23.478;2023-05-07T04:53:01;29.88;;;24.42;;
9934;SDS011;5006;41.828;23.478;2023-05-07T04:54:07;26.85;;;24.08;;
9934;SDS011;5006;41.828;23.478;2023-05-07T04:55:12;27.02;;;24.15;;
9934;SDS011;5006;41.828;23.478;2023-05-07T04:56:20;27.10;;;23.70;;
9934;SDS011;5006;41.828;23.478;2023-05-07T04:57:26;28.17;;;24.17;;
9934;SDS011;5006;41.828;23.478;2023-05-07T04:58:32;27.42;;;24.60;;
9934;SDS011;5006;41.828;23.478;2023-05-07T04:59:38;25.30;;;22.88;;
9934;SDS011;5006;41.828;23.478;2023-05-07T05:00:46;25.25;;;22.10;;
9934;SDS011;5006;41.828;23.478;2023-05-07T05:01:51;24.88;;;21.85;;
9934;SDS011;5006;41.828;23.478;2023-05-07T05:02:57;24.30;;;21.75;;
9934;SDS011;5006;41.828;23.478;2023-05-07T05:04:03;23.23;;;20.85;;
9934;SDS011;5006;41.828;23.478;2023-05-07T05:05:09;22.83;;;20.45;;
9934;SDS011;5006;41.828;23.478;2023-05-07T05:06:14;22.85;;;20.38;;
9934;SDS011;5006;41.828;23.478;2023-05-07T05:07:20;24.25;;;21.60;;
9934;SDS011;5006;41.828;23.478;2023-05-07T05:08:25;25.27;;;22.05;;
9934;SDS011;5006;41.828;23.478;2023-05-07T05:09:31;24.17;;;21.73;;
9934;SDS011;5006;41.828;23.478;2023-05-07T05:10:36;25.35;;;22.67;;
9934;SDS011;5006;41.828;23.478;2023-05-07T05:11:44;24.52;;;21.92;;
9934;SDS011;5006;41.828;23.478;2023-05-07T05:12:49;25.45;;;21.27;;
9934;SDS011;5006;41.828;23.478;2023-05-07T05:13:55;25.45;;;22.75;;
9934;SDS011;5006;41.828;23.478;2023-05-07T05:15:01;24.10;;;21.17;;
9934;SDS011;5006;41.828;23.478;2023-05-07T05:16:08;24.38;;;21.77;;
9934;SDS011;5006;41.828;23.478;2023-05-07T05:17:13;20.85;;;18.33;;
9934;SDS011;5006;41.828;23.478;2023-05-07T05:18:19;16.92;;;15.07;;
9934;SDS011;5006;41.828;23.478;2023-05-07T05:19:25;17.98;;;16.20;;
9934;SDS011;5006;41.828;23.478;2023-05-07T05:20:31;16.60;;;14.90;;
9934;SDS011;5006;41.828;23.478;2023-05-07T05:21:36;18.67;;;15.60;;
9934;SDS011;5006;41.828;23.478;2023-05-07T05:22:46;21.20;;;16.33;;
9934;SDS011;5006;41.828;23.478;2023-05-07T05:23:52;18.65;;;16.63;;
9934;SDS011;5006;41.828;23.478;2023-05-07T05:25:01;17.45;;;14.35;;
9934;SDS011;5006;41.828;23.478;2023-05-07T05:26:06;13.93;;;10.85;;
9934;SDS011;5006;41.828;23.478;2023-05-07T05:27:12;10.98;;;9.82;;
9934;SDS011;5006;41.828;23.478;2023-05-07T05:28:17;11.00;;;9.20;;
9934;SDS011;5006;41.828;23.478;2023-05-07T05:29:24;11.68;;;9.77;;
9934;SDS011;5006;41.828;23.478;2023-05-07T05:30:29;10.90;;;7.95;;
9934;SDS011;5006;41.828;23.478;2023-05-07T05:31:36;9.95;;;8.48;;
9934;SDS011;5006;41.828;23.478;2023-05-07T05:32:41;8.98;;;8.07;;
9934;SDS011;5006;41.828;23.478;2023-05-07T05:33:47;7.82;;;7.03;;
9934;SDS011;5006;41.828;23.478;2023-05-07T05:34:52;7.78;;;7.05;;
9934;SDS011;5006;41.828;23.478;2023-05-07T05:35:58;8.23;;;6.70;;
9934;SDS011;5006;41.828;23.478;2023-05-07T05:37:03;6.95;;;6.25;;
9934;SDS011;5006;41.828;23.478;2023-05-07T05:38:09;8.10;;;6.93;;
9934;SDS011;5006;41.828;23.478;2023-05-07T05:39:14;9.25;;;7.15;;
9934;SDS011;5006;41.828;23.478;2023-05-07T05:40:21;7.90;;;6.95;;
9934;SDS011;5006;41.828;23.478;2023-05-07T05:41:26;10.38;;;7.05;;
9934;SDS011;5006;41.828;23.478;2023-05-07T05:42:32;9.13;;;7.05;;
9934;SDS011;5006;41.828;23.478;2023-05-07T05:43:37;10.10;;;8.13;;
9934;SDS011;5006;41.828;23.478;2023-05-07T05:44:43;11.40;;;8.63;;
9934;SDS011;5006;41.828;23.478;2023-05-07T05:45:48;9.95;;;7.93;;
9934;SDS011;5006;41.828;23.478;2023-05-07T05:46:57;9.70;;;8.40;;
9934;SDS011;5006;41.828;23.478;2023-05-07T05:48:04;10.15;;;8.10;;
9934;SDS011;5006;41.828;23.478;2023-05-07T05:49:11;10.52;;;9.43;;
9934;SDS011;5006;41.828;23.478;2023-05-07T05:50:17;9.85;;;8.82;;
9934;SDS011;5006;41.828;23.478;2023-05-07T05:51:23;9.82;;;8.82;;
9934;SDS011;5006;41.828;23.478;2023-05-07T05:52:28;11.77;;;10.25;;
9934;SDS011;5006;41.828;23.478;2023-05-07T05:53:35;11.02;;;9.35;;
9934;SDS011;5006;41.828;23.478;2023-05-07T05:54:41;12.00;;;9.85;;
9934;SDS011;5006;41.828;23.478;2023-05-07T05:55:47;14.82;;;11.07;;
9934;SDS011;5006;41.828;23.478;2023-05-07T05:56:53;11.13;;;10.02;;
9934;SDS011;5006;41.828;23.478;2023-05-07T05:57:59;13.57;;;10.88;;
9934;SDS011;5006;41.828;23.478;2023-05-07T05:59:05;11.85;;;10.27;;
9934;SDS011;5006;41.828;23.478;2023-05-07T06:00:11;11.95;;;10.43;;
9934;SDS011;5006;41.828;23.478;2023-05-07T06:01:26;13.98;;;11.30;;
9934;SDS011;5006;41.828;23.478;2023-05-07T06:02:35;13.00;;;10.63;;
9934;SDS011;5006;41.828;23.478;2023-05-07T06:03:41;14.68;;;10.55;;
9934;SDS011;5006;41.828;23.478;2023-05-07T06:04:52;11.18;;;9.98;;
9934;SDS011;5006;41.828;23.478;2023-05-07T06:05:59;15.20;;;10.38;;
9934;SDS011;5006;41.828;23.478;2023-05-07T06:07:05;11.30;;;10.15;;
9934;SDS011;5006;41.828;23.478;2023-05-07T06:08:10;11.32;;;10.10;;
9934;SDS011;5006;41.828;23.478;2023-05-07T06:09:16;11.52;;;9.63;;
9934;SDS011;5006;41.828;23.478;2023-05-07T06:10:22;10.00;;;9.00;;
9934;SDS011;5006;41.828;23.478;2023-05-07T06:11:29;11.10;;;9.07;;
9934;SDS011;5006;41.828;23.478;2023-05-07T06:12:34;10.35;;;9.20;;
9934;SDS011;5006;41.828;23.478;2023-05-07T06:13:40;9.70;;;8.70;;
9934;SDS011;5006;41.828;23.478;2023-05-07T06:14:45;10.23;;;9.23;;
9934;SDS011;5006;41.828;23.478;2023-05-07T06:15:51;10.27;;;8.80;;
9934;SDS011;5006;41.828;23.478;2023-05-07T06:16:56;11.73;;;9.38;;
9934;SDS011;5006;41.828;23.478;2023-05-07T06:18:03;10.48;;;8.65;;
9934;SDS011;5006;41.828;23.478;2023-05-07T06:19:09;9.88;;;8.50;;
9934;SDS011;5006;41.828;23.478;2023-05-07T06:20:17;11.55;;;8.90;;
9934;SDS011;5006;41.828;23.478;2023-05-07T06:21:23;10.35;;;9.25;;
9934;SDS011;5006;41.828;23.478;2023-05-07T06:22:29;10.38;;;9.15;;
9934;SDS011;5006;41.828;23.478;2023-05-07T06:23:34;14.13;;;10.40;;
9934;SDS011;5006;41.828;23.478;2023-05-07T06:24:40;12.18;;;9.93;;
9934;SDS011;5006;41.828;23.478;2023-05-07T06:25:48;10.98;;;9.80;;
9934;SDS011;5006;41.828;23.478;2023-05-07T06:26:53;11.60;;;10.40;;
9934;SDS011;5006;41.828;23.478;2023-05-07T06:27:59;12.25;;;11.10;;
9934;SDS011;5006;41.828;23.478;2023-05-07T06:29:05;10.25;;;9.18;;
9934;SDS011;5006;41.828;23.478;2023-05-07T06:30:12;12.27;;;10.10;;
9934;SDS011;5006;41.828;23.478;2023-05-07T06:31:18;12.65;;;10.52;;
9934;SDS011;5006;41.828;23.478;2023-05-07T06:32:32;12.13;;;10.45;;
9934;SDS011;5006;41.828;23.478;2023-05-07T06:33:40;11.63;;;10.43;;
9934;SDS011;5006;41.828;23.478;2023-05-07T06:34:45;11.63;;;10.18;;
9934;SDS011;5006;41.828;23.478;2023-05-07T06:35:52;13.88;;;11.20;;
9934;SDS011;5006;41.828;23.478;2023-05-07T06:36:57;12.85;;;11.55;;
9934;SDS011;5006;41.828;23.478;2023-05-07T06:38:17;11.07;;;10.05;;
9934;SDS011;5006;41.828;23.478;2023-05-07T06:39:23;11.18;;;9.98;;
9934;SDS011;5006;41.828;23.478;2023-05-07T06:40:30;15.52;;;11.05;;
9934;SDS011;5006;41.828;23.478;2023-05-07T06:41:38;10.70;;;9.63;;
9934;SDS011;5006;41.828;23.478;2023-05-07T06:42:52;11.88;;;10.07;;
9934;SDS011;5006;41.828;23.478;2023-05-07T06:44:08;11.63;;;10.43;;